Kynouria — V7VY6 — position and weather

sailwx.info

Track history (hours):
 
Tides and Currents Weather Stations Pressure Air Temp Water Temp Dewpoint Dewpoint Depression Visibility Wind Speed Wind Dir Waves Ship Positions

Kynouria

Last reported at 2016-Jan-23 23:19 UTC. Time now 2016-Feb-14 14:46 UTC.
Position N 48°31' W 126°18'.
Warning: this ship's position is 21 days out of date.

Length 229 m; draft 13.5 m.

Type: Ship. MMSI: 538004243.

Date/timePositionNaut miles runAvg speedWind from/ knotsBaromVisibWave heightAir tempDewpointWater temp
2016-Jan-23 23:19N 48°31' W 126°18'8 9.8
2016-Jan-23 22:32N 48°31' W 126°06'10 9.8
2016-Jan-23 21:32N 48°31' W 125°52'1010.0
2016-Jan-23 20:33N 48°30' W 125°37'5110.2
2016-Jan-23 15:33N 48°24' W 124°21'1312.8
2016-Jan-23 14:31N 48°19' W 124°02'1010.4
2016-Jan-23 13:33N 48°17' W 123°48'1111.2
2016-Jan-23 12:33N 48°15' W 123°31'1010.2
2016-Jan-23 11:33N 48°23' W 123°21'9 8.8
2016-Jan-23 10:33N 48°30' W 123°13'1110.9
2016-Jan-23 09:33N 48°41' W 123°16'1110.6
2016-Jan-23 08:33N 48°47' W 123°02'1110.9
2016-Jan-23 07:33N 48°56' W 123°11'1312.6
2016-Jan-23 06:33N 49°06' W 123°23'1312.8
2016-Jan-23 05:33N 49°18' W 123°18'8 7.8
2016-Jan-23 04:32N 49°18' W 123°06'0 0.0
2016-Jan-23 03:32N 49°18' W 123°06'0 0.0
2016-Jan-23 02:32N 49°18' W 123°06'1 0.5
2016-Jan-23 01:33N 49°18' W 123°06'1 0.5
2016-Jan-23 00:33N 49°19' W 123°07'0 0.0
2016-Jan-22 23:33N 49°19' W 123°07'0 0.0
2016-Jan-22 22:33N 49°19' W 123°07'0 0.0
2016-Jan-22 21:33N 49°19' W 123°07'0 0.0
2016-Jan-22 20:33N 49°19' W 123°07'0 0.0
2016-Jan-22 19:33N 49°19' W 123°07'0 0.0
2016-Jan-22 18:33N 49°19' W 123°07'0 0.0
2016-Jan-22 17:33N 49°19' W 123°07'0 0.0
2016-Jan-22 16:33N 49°19' W 123°07'0 0.0
2016-Jan-22 15:33N 49°19' W 123°07'0 0.0
2016-Jan-22 14:33N 49°19' W 123°07'1 0.6
2016-Jan-22 13:33N 49°18' W 123°06'6 6.1
2016-Jan-22 12:33N 49°18' W 122°57'3 3.2
2016-Jan-22 11:31N 49°17' W 122°52'0 0.0
2016-Jan-22 10:31N 49°17' W 122°52'0 0.0
2016-Jan-22 09:31N 49°17' W 122°52'0 0.0
2016-Jan-22 08:31N 49°17' W 122°52'0 0.0
2016-Jan-22 07:31N 49°17' W 122°52'0 0.0
2016-Jan-22 06:31N 49°17' W 122°52'0 0.0
2016-Jan-22 05:31N 49°17' W 122°52'0 0.0
2016-Jan-22 04:31N 49°17' W 122°52'0 0.0
2016-Jan-22 03:31N 49°17' W 122°52'0 0.0
2016-Jan-22 02:31N 49°17' W 122°52'0 0.0
2016-Jan-22 01:31N 49°17' W 122°52'0 0.0
2016-Jan-22 00:31N 49°17' W 122°52'0 0.0
2016-Jan-21 23:31N 49°17' W 122°52'0 0.0
2016-Jan-21 22:31N 49°17' W 122°52'0 0.0
2016-Jan-21 21:31N 49°17' W 122°52'0 0.0
2016-Jan-21 20:31N 49°17' W 122°52'0 0.0
2016-Jan-21 19:31N 49°17' W 122°52'0 0.0
2016-Jan-21 18:31N 49°17' W 122°52'0 0.0
2016-Jan-21 17:31N 49°17' W 122°52'0 0.0
2016-Jan-21 16:31N 49°17' W 122°52'0 0.0
2016-Jan-21 15:31N 49°17' W 122°52'0 0.0
2016-Jan-21 14:31N 49°17' W 122°52'0 0.0
2016-Jan-21 13:31N 49°17' W 122°52'0 0.0
2016-Jan-21 12:31N 49°17' W 122°52'0 0.0
2016-Jan-21 11:31N 49°17' W 122°52'0 0.0
2016-Jan-21 10:31N 49°17' W 122°52'0 0.0
2016-Jan-21 09:31N 49°17' W 122°52'0 0.0
2016-Jan-21 08:31N 49°17' W 122°52'0 0.0
2016-Jan-21 07:31N 49°17' W 122°52'0 0.0
2016-Jan-21 06:31N 49°17' W 122°52'0 0.0
2016-Jan-21 05:31N 49°17' W 122°52'0 0.0
2016-Jan-21 04:31N 49°17' W 122°52'0 0.0
2016-Jan-21 03:31N 49°17' W 122°52'0 0.0
2016-Jan-21 02:31N 49°17' W 122°52'0 0.0
2016-Jan-21 01:31N 49°17' W 122°52'0 0.0
2016-Jan-21 00:31N 49°17' W 122°52'0 0.0
2016-Jan-20 23:31N 49°17' W 122°52'0 0.0
2016-Jan-20 22:31N 49°17' W 122°52'0 0.0
2016-Jan-20 21:31N 49°17' W 122°52'0 0.0
2016-Jan-20 20:31N 49°17' W 122°52'0 0.0
2016-Jan-20 19:31N 49°17' W 122°52'0 0.0
2016-Jan-20 18:31N 49°17' W 122°52'0 0.0
2016-Jan-20 17:31N 49°17' W 122°52'0 0.0
2016-Jan-20 16:31N 49°17' W 122°52'0 0.0
2016-Jan-20 15:28N 49°17' W 122°52'0 0.0
2016-Jan-20 14:31N 49°17' W 122°52'0 0.0
2016-Jan-20 13:31N 49°17' W 122°52'0 0.0
2016-Jan-20 12:31N 49°17' W 122°52'0 0.0
2016-Jan-20 11:31N 49°17' W 122°52'0 0.0
2016-Jan-20 10:31N 49°17' W 122°52'0 0.0
2016-Jan-20 09:31N 49°17' W 122°52'0 0.0
2016-Jan-20 08:31N 49°17' W 122°52'0 0.0
2016-Jan-20 07:31N 49°17' W 122°52'0 0.0
2016-Jan-20 06:31N 49°17' W 122°52'0 0.4
2016-Jan-20 05:34N 49°18' W 122°52'6 5.9
2016-Jan-20 04:34N 49°18' W 123°01'6 6.0
2016-Jan-20 03:34N 49°19' W 123°10'9 8.6
2016-Jan-20 02:34N 49°12' W 123°19'9 8.6
2016-Jan-20 01:33N 49°04' W 123°19'9 9.4
2016-Jan-20 00:33N 48°57' W 123°09'1211.6
2016-Jan-19 23:33N 48°48' W 122°59'1312.6
2016-Jan-19 22:33N 48°40' W 123°15'1212.3
2016-Jan-19 21:33N 48°29' W 123°10'1010.1
2016-Jan-19 20:33N 48°22' W 123°22'10 9.7
2016-Jan-19 19:33N 48°12' W 123°25'10 9.6
2016-Jan-19 18:34N 48°11' W 123°11'1413.5
2016-Jan-19 17:33N 48°12' W 122°51'1212.4
2016-Jan-19 16:34N 48°03' W 122°38'1413.8
2016-Jan-19 15:33N 47°51' W 122°27'1514.6
2016-Jan-19 14:33N 47°37' W 122°27'1414.3
2016-Jan-19 13:33N 47°23' W 122°21'8 7.4
2016-Jan-19 12:32N 47°16' W 122°27'0 0.0
2016-Jan-19 11:32N 47°16' W 122°27'0 0.0
2016-Jan-19 10:33N 47°16' W 122°27'0 0.1
2016-Jan-19 09:29N 47°17' W 122°27'0 0.1
2016-Jan-19 08:33N 47°17' W 122°27'0 0.0
2016-Jan-19 07:32N 47°16' W 122°27'0 0.1
2016-Jan-19 06:29N 47°17' W 122°27'0 0.1
2016-Jan-19 05:33N 47°17' W 122°27'0 0.1
2016-Jan-19 04:33N 47°17' W 122°27'0 0.1
2016-Jan-19 03:33N 47°17' W 122°26'0 0.3
2016-Jan-19 02:32N 47°16' W 122°27'0 0.0
2016-Jan-19 01:32N 47°16' W 122°27'0 0.1
2016-Jan-19 00:32N 47°17' W 122°27'0 0.1
2016-Jan-18 23:32N 47°16' W 122°27'0 0.1
2016-Jan-18 22:32N 47°16' W 122°27'0 0.0
2016-Jan-18 21:33N 47°16' W 122°27'0 0.1
2016-Jan-18 20:32N 47°16' W 122°27'0 0.1
2016-Jan-18 19:33N 47°16' W 122°27'0 0.1
2016-Jan-18 18:33N 47°16' W 122°27'0 0.1
2016-Jan-18 17:32N 47°16' W 122°27'0 0.1
2016-Jan-18 16:29N 47°16' W 122°27'0 0.0
2016-Jan-18 15:29N 47°16' W 122°27'0 0.0
2016-Jan-18 14:32N 47°16' W 122°27'0 0.0
2016-Jan-18 13:32N 47°16' W 122°27'0 0.1
2016-Jan-18 12:32N 47°17' W 122°27'0 0.0
2016-Jan-18 11:32N 47°16' W 122°27'0 0.1
2016-Jan-18 10:32N 47°16' W 122°27'0 0.0
2016-Jan-18 09:32N 47°16' W 122°27'0 0.1
2016-Jan-18 08:32N 47°17' W 122°27'0 0.0
2016-Jan-18 07:33N 47°17' W 122°27'0 0.0
2016-Jan-18 06:33N 47°17' W 122°27'0 0.0
2016-Jan-18 05:32N 47°17' W 122°27'0 0.1
2016-Jan-18 04:29N 47°17' W 122°27'0 0.0
2016-Jan-18 01:33N 47°16' W 122°27'0 0.0
2016-Jan-18 00:26N 47°16' W 122°27'0 0.1
2016-Jan-17 23:33N 47°17' W 122°27'0 0.0
2016-Jan-17 22:17N 47°17' W 122°27'0 0.1
2016-Jan-17 21:18N 47°16' W 122°27'2 2.6
2016-Jan-17 20:33N 47°18' W 122°28'1110.7
2016-Jan-17 19:33N 47°29' W 122°25'1313.1
2016-Jan-17 18:33N 47°42' W 122°28'1313.3
2016-Jan-17 17:33N 47°55' W 122°30'1514.5
2016-Jan-17 16:33N 48°07' W 122°42'1514.6
2016-Jan-17 15:33N 48°12' W 123°02'1413.8
2016-Jan-17 14:33N 48°10' W 123°23'1111.4
2016-Jan-17 13:33N 48°13' W 123°39'1313.4
2016-Jan-17 12:33N 48°15' W 123°59'1312.9
2016-Jan-17 11:32N 48°20' W 124°17'1312.7
2016-Jan-17 10:31N 48°26' W 124°34'1212.5
2016-Jan-17 09:33N 48°28' W 124°52'1111.5
2016-Jan-17 08:33N 48°29' W 125°09'1212.4
2016-Jan-17 07:33N 48°28' W 125°28'1212.2
2016-Jan-17 06:33N 48°29' W 125°46'1312.6
2016-Jan-17 05:33N 48°30' W 126°06'1313.0
2016-Jan-17 04:33N 48°30' W 126°25'1413.8
2016-Jan-17 03:30N 48°30' W 126°47'  
Track history (hours):
 
Tides and Currents Weather Stations Pressure Air Temp Water Temp Dewpoint Dewpoint Depression Visibility Wind Speed Wind Dir Waves Ship Positions

Kynouria

Last reported at 2016-Jan-23 23:19 UTC. Time now 2016-Feb-14 14:46 UTC.
Position N 48°31' W 126°18'.
Warning: this ship's position is 21 days out of date.

Length 229 m; draft 13.5 m.

Type: Ship. MMSI: 538004243.

Date/timePositionNaut miles runAvg speedWind from/ knotsBaromVisibWave heightAir tempDewpointWater temp
2016-Jan-23 23:19N 48°31' W 126°18'8 9.8
2016-Jan-23 22:32N 48°31' W 126°06'10 9.8
2016-Jan-23 21:32N 48°31' W 125°52'1010.0
2016-Jan-23 20:33N 48°30' W 125°37'5110.2
2016-Jan-23 15:33N 48°24' W 124°21'1312.8
2016-Jan-23 14:31N 48°19' W 124°02'1010.4
2016-Jan-23 13:33N 48°17' W 123°48'1111.2
2016-Jan-23 12:33N 48°15' W 123°31'1010.2
2016-Jan-23 11:33N 48°23' W 123°21'9 8.8
2016-Jan-23 10:33N 48°30' W 123°13'1110.9
2016-Jan-23 09:33N 48°41' W 123°16'1110.6
2016-Jan-23 08:33N 48°47' W 123°02'1110.9
2016-Jan-23 07:33N 48°56' W 123°11'1312.6
2016-Jan-23 06:33N 49°06' W 123°23'1312.8
2016-Jan-23 05:33N 49°18' W 123°18'8 7.8
2016-Jan-23 04:32N 49°18' W 123°06'0 0.0
2016-Jan-23 03:32N 49°18' W 123°06'0 0.0
2016-Jan-23 02:32N 49°18' W 123°06'1 0.5
2016-Jan-23 01:33N 49°18' W 123°06'1 0.5
2016-Jan-23 00:33N 49°19' W 123°07'0 0.0
2016-Jan-22 23:33N 49°19' W 123°07'0 0.0
2016-Jan-22 22:33N 49°19' W 123°07'0 0.0
2016-Jan-22 21:33N 49°19' W 123°07'0 0.0
2016-Jan-22 20:33N 49°19' W 123°07'0 0.0
2016-Jan-22 19:33N 49°19' W 123°07'0 0.0
2016-Jan-22 18:33N 49°19' W 123°07'0 0.0
2016-Jan-22 17:33N 49°19' W 123°07'0 0.0
2016-Jan-22 16:33N 49°19' W 123°07'0 0.0
2016-Jan-22 15:33N 49°19' W 123°07'0 0.0
2016-Jan-22 14:33N 49°19' W 123°07'1 0.6
2016-Jan-22 13:33N 49°18' W 123°06'6 6.1
2016-Jan-22 12:33N 49°18' W 122°57'3 3.2
2016-Jan-22 11:31N 49°17' W 122°52'0 0.0
2016-Jan-22 10:31N 49°17' W 122°52'0 0.0
2016-Jan-22 09:31N 49°17' W 122°52'0 0.0
2016-Jan-22 08:31N 49°17' W 122°52'0 0.0
2016-Jan-22 07:31N 49°17' W 122°52'0 0.0
2016-Jan-22 06:31N 49°17' W 122°52'0 0.0
2016-Jan-22 05:31N 49°17' W 122°52'0 0.0
2016-Jan-22 04:31N 49°17' W 122°52'0 0.0
2016-Jan-22 03:31N 49°17' W 122°52'0 0.0
2016-Jan-22 02:31N 49°17' W 122°52'0 0.0
2016-Jan-22 01:31N 49°17' W 122°52'0 0.0
2016-Jan-22 00:31N 49°17' W 122°52'0 0.0
2016-Jan-21 23:31N 49°17' W 122°52'0 0.0
2016-Jan-21 22:31N 49°17' W 122°52'0 0.0
2016-Jan-21 21:31N 49°17' W 122°52'0 0.0
2016-Jan-21 20:31N 49°17' W 122°52'0 0.0
2016-Jan-21 19:31N 49°17' W 122°52'0 0.0
2016-Jan-21 18:31N 49°17' W 122°52'0 0.0
2016-Jan-21 17:31N 49°17' W 122°52'0 0.0
2016-Jan-21 16:31N 49°17' W 122°52'0 0.0
2016-Jan-21 15:31N 49°17' W 122°52'0 0.0
2016-Jan-21 14:31N 49°17' W 122°52'0 0.0
2016-Jan-21 13:31N 49°17' W 122°52'0 0.0
2016-Jan-21 12:31N 49°17' W 122°52'0 0.0
2016-Jan-21 11:31N 49°17' W 122°52'0 0.0
2016-Jan-21 10:31N 49°17' W 122°52'0 0.0
2016-Jan-21 09:31N 49°17' W 122°52'0 0.0
2016-Jan-21 08:31N 49°17' W 122°52'0 0.0
2016-Jan-21 07:31N 49°17' W 122°52'0 0.0
2016-Jan-21 06:31N 49°17' W 122°52'0 0.0
2016-Jan-21 05:31N 49°17' W 122°52'0 0.0
2016-Jan-21 04:31N 49°17' W 122°52'0 0.0
2016-Jan-21 03:31N 49°17' W 122°52'0 0.0
2016-Jan-21 02:31N 49°17' W 122°52'0 0.0
2016-Jan-21 01:31N 49°17' W 122°52'0 0.0
2016-Jan-21 00:31N 49°17' W 122°52'0 0.0
2016-Jan-20 23:31N 49°17' W 122°52'0 0.0
2016-Jan-20 22:31N 49°17' W 122°52'0 0.0
2016-Jan-20 21:31N 49°17' W 122°52'0 0.0
2016-Jan-20 20:31N 49°17' W 122°52'0 0.0
2016-Jan-20 19:31N 49°17' W 122°52'0 0.0
2016-Jan-20 18:31N 49°17' W 122°52'0 0.0
2016-Jan-20 17:31N 49°17' W 122°52'0 0.0
2016-Jan-20 16:31N 49°17' W 122°52'0 0.0
2016-Jan-20 15:28N 49°17' W 122°52'0 0.0
2016-Jan-20 14:31N 49°17' W 122°52'0 0.0
2016-Jan-20 13:31N 49°17' W 122°52'0 0.0
2016-Jan-20 12:31N 49°17' W 122°52'0 0.0
2016-Jan-20 11:31N 49°17' W 122°52'0 0.0
2016-Jan-20 10:31N 49°17' W 122°52'0 0.0
2016-Jan-20 09:31N 49°17' W 122°52'0 0.0
2016-Jan-20 08:31N 49°17' W 122°52'0 0.0
2016-Jan-20 07:31N 49°17' W 122°52'0 0.0
2016-Jan-20 06:31N 49°17' W 122°52'0 0.4
2016-Jan-20 05:34N 49°18' W 122°52'6 5.9
2016-Jan-20 04:34N 49°18' W 123°01'6 6.0
2016-Jan-20 03:34N 49°19' W 123°10'9 8.6
2016-Jan-20 02:34N 49°12' W 123°19'9 8.6
2016-Jan-20 01:33N 49°04' W 123°19'9 9.4
2016-Jan-20 00:33N 48°57' W 123°09'1211.6
2016-Jan-19 23:33N 48°48' W 122°59'1312.6
2016-Jan-19 22:33N 48°40' W 123°15'1212.3
2016-Jan-19 21:33N 48°29' W 123°10'1010.1
2016-Jan-19 20:33N 48°22' W 123°22'10 9.7
2016-Jan-19 19:33N 48°12' W 123°25'10 9.6
2016-Jan-19 18:34N 48°11' W 123°11'1413.5
2016-Jan-19 17:33N 48°12' W 122°51'1212.4
2016-Jan-19 16:34N 48°03' W 122°38'1413.8
2016-Jan-19 15:33N 47°51' W 122°27'1514.6
2016-Jan-19 14:33N 47°37' W 122°27'1414.3
2016-Jan-19 13:33N 47°23' W 122°21'8 7.4
2016-Jan-19 12:32N 47°16' W 122°27'0 0.0
2016-Jan-19 11:32N 47°16' W 122°27'0 0.0
2016-Jan-19 10:33N 47°16' W 122°27'0 0.1
2016-Jan-19 09:29N 47°17' W 122°27'0 0.1
2016-Jan-19 08:33N 47°17' W 122°27'0 0.0
2016-Jan-19 07:32N 47°16' W 122°27'0 0.1
2016-Jan-19 06:29N 47°17' W 122°27'0 0.1
2016-Jan-19 05:33N 47°17' W 122°27'0 0.1
2016-Jan-19 04:33N 47°17' W 122°27'0 0.1
2016-Jan-19 03:33N 47°17' W 122°26'0 0.3
2016-Jan-19 02:32N 47°16' W 122°27'0 0.0
2016-Jan-19 01:32N 47°16' W 122°27'0 0.1
2016-Jan-19 00:32N 47°17' W 122°27'0 0.1
2016-Jan-18 23:32N 47°16' W 122°27'0 0.1
2016-Jan-18 22:32N 47°16' W 122°27'0 0.0
2016-Jan-18 21:33N 47°16' W 122°27'0 0.1
2016-Jan-18 20:32N 47°16' W 122°27'0 0.1
2016-Jan-18 19:33N 47°16' W 122°27'0 0.1
2016-Jan-18 18:33N 47°16' W 122°27'0 0.1
2016-Jan-18 17:32N 47°16' W 122°27'0 0.1
2016-Jan-18 16:29N 47°16' W 122°27'0 0.0
2016-Jan-18 15:29N 47°16' W 122°27'0 0.0
2016-Jan-18 14:32N 47°16' W 122°27'0 0.0
2016-Jan-18 13:32N 47°16' W 122°27'0 0.1
2016-Jan-18 12:32N 47°17' W 122°27'0 0.0
2016-Jan-18 11:32N 47°16' W 122°27'0 0.1
2016-Jan-18 10:32N 47°16' W 122°27'0 0.0
2016-Jan-18 09:32N 47°16' W 122°27'0 0.1
2016-Jan-18 08:32N 47°17' W 122°27'0 0.0
2016-Jan-18 07:33N 47°17' W 122°27'0 0.0
2016-Jan-18 06:33N 47°17' W 122°27'0 0.0
2016-Jan-18 05:32N 47°17' W 122°27'0 0.1
2016-Jan-18 04:29N 47°17' W 122°27'0 0.0
2016-Jan-18 01:33N 47°16' W 122°27'0 0.0
2016-Jan-18 00:26N 47°16' W 122°27'0 0.1
2016-Jan-17 23:33N 47°17' W 122°27'0 0.0
2016-Jan-17 22:17N 47°17' W 122°27'0 0.1
2016-Jan-17 21:18N 47°16' W 122°27'2 2.6
2016-Jan-17 20:33N 47°18' W 122°28'1110.7
2016-Jan-17 19:33N 47°29' W 122°25'1313.1
2016-Jan-17 18:33N 47°42' W 122°28'1313.3
2016-Jan-17 17:33N 47°55' W 122°30'1514.5
2016-Jan-17 16:33N 48°07' W 122°42'1514.6
2016-Jan-17 15:33N 48°12' W 123°02'1413.8
2016-Jan-17 14:33N 48°10' W 123°23'1111.4
2016-Jan-17 13:33N 48°13' W 123°39'1313.4
2016-Jan-17 12:33N 48°15' W 123°59'1312.9
2016-Jan-17 11:32N 48°20' W 124°17'1312.7
2016-Jan-17 10:31N 48°26' W 124°34'1212.5
2016-Jan-17 09:33N 48°28' W 124°52'1111.5
2016-Jan-17 08:33N 48°29' W 125°09'1212.4
2016-Jan-17 07:33N 48°28' W 125°28'1212.2
2016-Jan-17 06:33N 48°29' W 125°46'1312.6
2016-Jan-17 05:33N 48°30' W 126°06'1313.0
2016-Jan-17 04:33N 48°30' W 126°25'1413.8
2016-Jan-17 03:30N 48°30' W 126°47'  

Dump ship's entire track history